sensor_id;sensor_type;location;lat;lon;timestamp;P1;P2;P0
64114;PMS5003;62188;35.640;139.748;2023-04-24T00:02:11;12;11;
64114;PMS5003;62188;35.640;139.748;2023-04-24T00:04:37;11;11;
64114;PMS5003;62188;35.640;139.748;2023-04-24T00:07:02;12;11;
64114;PMS5003;62188;35.640;139.748;2023-04-24T00:09:28;13;11;
64114;PMS5003;62188;35.640;139.748;2023-04-24T00:11:54;13;12;
64114;PMS5003;62188;35.640;139.748;2023-04-24T00:14:19;10;10;
64114;PMS5003;62188;35.640;139.748;2023-04-24T00:16:45;14;14;
64114;PMS5003;62188;35.640;139.748;2023-04-24T00:19:11;12;11;
64114;PMS5003;62188;35.640;139.748;2023-04-24T00:21:36;12;12;
64114;PMS5003;62188;35.640;139.748;2023-04-24T00:24:02;11;11;
64114;PMS5003;62188;35.640;139.748;2023-04-24T00:26:27;12;11;
64114;PMS5003;62188;35.640;139.748;2023-04-24T00:28:53;12;11;
64114;PMS5003;62188;35.640;139.748;2023-04-24T00:31:19;10;10;
64114;PMS5003;62188;35.640;139.748;2023-04-24T00:33:44;12;12;
64114;PMS5003;62188;35.640;139.748;2023-04-24T00:36:10;11;11;
64114;PMS5003;62188;35.640;139.748;2023-04-24T00:38:36;10;9;
64114;PMS5003;62188;35.640;139.748;2023-04-24T00:41:01;9;9;
64114;PMS5003;62188;35.640;139.748;2023-04-24T00:43:27;10;10;
64114;PMS5003;62188;35.640;139.748;2023-04-24T00:45:52;12;11;
64114;PMS5003;62188;35.640;139.748;2023-04-24T00:48:18;12;10;
64114;PMS5003;62188;35.640;139.748;2023-04-24T00:50:44;12;12;
64114;PMS5003;62188;35.640;139.748;2023-04-24T00:53:09;14;14;
64114;PMS5003;62188;35.640;139.748;2023-04-24T00:55:35;12;12;
64114;PMS5003;62188;35.640;139.748;2023-04-24T00:58:00;11;11;
64114;PMS5003;62188;35.640;139.748;2023-04-24T01:00:26;10;10;
64114;PMS5003;62188;35.640;139.748;2023-04-24T01:02:52;10;10;
64114;PMS5003;62188;35.640;139.748;2023-04-24T01:05:17;11;11;
64114;PMS5003;62188;35.640;139.748;2023-04-24T01:07:44;11;11;
64114;PMS5003;62188;35.640;139.748;2023-04-24T01:10:09;14;12;
64114;PMS5003;62188;35.640;139.748;2023-04-24T01:12:34;11;10;
64114;PMS5003;62188;35.640;139.748;2023-04-24T01:15:00;13;13;
64114;PMS5003;62188;35.640;139.748;2023-04-24T01:17:25;11;11;
64114;PMS5003;62188;35.640;139.748;2023-04-24T01:19:51;11;11;
64114;PMS5003;62188;35.640;139.748;2023-04-24T01:22:16;11;11;
64114;PMS5003;62188;35.640;139.748;2023-04-24T01:24:42;14;11;
64114;PMS5003;62188;35.640;139.748;2023-04-24T01:27:08;12;12;
64114;PMS5003;62188;35.640;139.748;2023-04-24T01:29:34;12;11;
64114;PMS5003;62188;35.640;139.748;2023-04-24T01:31:59;14;13;
64114;PMS5003;62188;35.640;139.748;2023-04-24T01:34:25;15;15;
64114;PMS5003;62188;35.640;139.748;2023-04-24T01:36:50;13;12;
64114;PMS5003;62188;35.640;139.748;2023-04-24T01:39:16;14;12;
64114;PMS5003;62188;35.640;139.748;2023-04-24T01:41:41;13;12;
64114;PMS5003;62188;35.640;139.748;2023-04-24T01:44:07;12;12;
64114;PMS5003;62188;35.640;139.748;2023-04-24T01:46:33;14;13;
64114;PMS5003;62188;35.640;139.748;2023-04-24T01:48:58;17;16;
64114;PMS5003;62188;35.640;139.748;2023-04-24T01:51:23;12;12;
64114;PMS5003;62188;35.640;139.748;2023-04-24T01:53:49;13;12;
64114;PMS5003;62188;35.640;139.748;2023-04-24T01:56:15;16;15;
64114;PMS5003;62188;35.640;139.748;2023-04-24T01:58:40;13;12;
64114;PMS5003;62188;35.640;139.748;2023-04-24T02:01:06;12;12;
64114;PMS5003;62188;35.640;139.748;2023-04-24T02:03:31;14;14;
64114;PMS5003;62188;35.640;139.748;2023-04-24T02:05:57;13;13;
64114;PMS5003;62188;35.640;139.748;2023-04-24T02:08:22;13;13;
64114;PMS5003;62188;35.640;139.748;2023-04-24T02:10:47;12;12;
64114;PMS5003;62188;35.640;139.748;2023-04-24T02:13:13;11;11;
64114;PMS5003;62188;35.640;139.748;2023-04-24T02:15:38;13;12;
64114;PMS5003;62188;35.640;139.748;2023-04-24T02:18:04;14;14;
64114;PMS5003;62188;35.640;139.748;2023-04-24T02:20:29;14;13;
64114;PMS5003;62188;35.640;139.748;2023-04-24T02:22:55;15;13;
64114;PMS5003;62188;35.640;139.748;2023-04-24T02:25:21;13;13;
64114;PMS5003;62188;35.640;139.748;2023-04-24T02:27:46;12;12;
64114;PMS5003;62188;35.640;139.748;2023-04-24T02:30:12;19;17;
64114;PMS5003;62188;35.640;139.748;2023-04-24T02:32:37;11;11;
64114;PMS5003;62188;35.640;139.748;2023-04-24T02:35:03;12;12;
64114;PMS5003;62188;35.640;139.748;2023-04-24T02:37:28;13;13;
64114;PMS5003;62188;35.640;139.748;2023-04-24T02:39:53;17;15;
64114;PMS5003;62188;35.640;139.748;2023-04-24T02:42:19;14;14;
64114;PMS5003;62188;35.640;139.748;2023-04-24T02:44:44;13;13;
64114;PMS5003;62188;35.640;139.748;2023-04-24T02:47:10;16;16;
64114;PMS5003;62188;35.640;139.748;2023-04-24T02:49:35;15;15;
64114;PMS5003;62188;35.640;139.748;2023-04-24T02:52:01;16;16;
64114;PMS5003;62188;35.640;139.748;2023-04-24T02:54:27;15;15;
64114;PMS5003;62188;35.640;139.748;2023-04-24T02:56:52;17;16;
64114;PMS5003;62188;35.640;139.748;2023-04-24T02:59:18;15;15;
64114;PMS5003;62188;35.640;139.748;2023-04-24T03:01:43;18;17;
64114;PMS5003;62188;35.640;139.748;2023-04-24T03:04:09;16;16;
64114;PMS5003;62188;35.640;139.748;2023-04-24T03:06:34;22;18;
64114;PMS5003;62188;35.640;139.748;2023-04-24T03:09:00;15;14;
64114;PMS5003;62188;35.640;139.748;2023-04-24T03:11:26;19;17;
64114;PMS5003;62188;35.640;139.748;2023-04-24T03:13:51;19;18;
64114;PMS5003;62188;35.640;139.748;2023-04-24T03:16:17;19;18;
64114;PMS5003;62188;35.640;139.748;2023-04-24T03:18:42;17;17;
64114;PMS5003;62188;35.640;139.748;2023-04-24T03:21:08;18;17;
64114;PMS5003;62188;35.640;139.748;2023-04-24T03:23:34;17;17;
64114;PMS5003;62188;35.640;139.748;2023-04-24T03:25:59;23;21;
64114;PMS5003;62188;35.640;139.748;2023-04-24T03:28:25;17;16;
64114;PMS5003;62188;35.640;139.748;2023-04-24T03:30:50;21;20;
64114;PMS5003;62188;35.640;139.748;2023-04-24T03:33:15;22;21;
64114;PMS5003;62188;35.640;139.748;2023-04-24T03:35:41;18;17;
64114;PMS5003;62188;35.640;139.748;2023-04-24T03:38:06;21;21;
64114;PMS5003;62188;35.640;139.748;2023-04-24T03:40:32;19;18;
64114;PMS5003;62188;35.640;139.748;2023-04-24T03:42:57;21;20;
64114;PMS5003;62188;35.640;139.748;2023-04-24T03:45:23;21;19;
64114;PMS5003;62188;35.640;139.748;2023-04-24T03:47:48;21;20;
64114;PMS5003;62188;35.640;139.748;2023-04-24T03:50:14;21;21;
64114;PMS5003;62188;35.640;139.748;2023-04-24T03:52:40;18;17;
64114;PMS5003;62188;35.640;139.748;2023-04-24T03:57:31;23;20;
64114;PMS5003;62188;35.640;139.748;2023-04-24T04:00:07;22;21;
64114;PMS5003;62188;35.640;139.748;2023-04-24T04:02:27;22;22;
64114;PMS5003;62188;35.640;139.748;2023-04-24T04:04:52;19;17;
64114;PMS5003;62188;35.640;139.748;2023-04-24T04:07:23;22;21;
64114;PMS5003;62188;35.640;139.748;2023-04-24T04:09:38;20;20;
64114;PMS5003;62188;35.640;139.748;2023-04-24T04:12:14;21;19;
64114;PMS5003;62188;35.640;139.748;2023-04-24T04:14:34;26;23;
64114;PMS5003;62188;35.640;139.748;2023-04-24T04:17:00;25;25;
64114;PMS5003;62188;35.640;139.748;2023-04-24T04:19:24;20;19;
64114;PMS5003;62188;35.640;139.748;2023-04-24T04:21:55;25;24;
64114;PMS5003;62188;35.640;139.748;2023-04-24T04:29:07;23;21;
64114;PMS5003;62188;35.640;139.748;2023-04-24T04:33:57;19;19;
64114;PMS5003;62188;35.640;139.748;2023-04-24T04:38:48;18;17;
64114;PMS5003;62188;35.640;139.748;2023-04-24T04:41:14;20;20;
64114;PMS5003;62188;35.640;139.748;2023-04-24T04:43:35;26;22;
64114;PMS5003;62188;35.640;139.748;2023-04-24T04:46:04;22;22;
64114;PMS5003;62188;35.640;139.748;2023-04-24T04:48:35;21;20;
64114;PMS5003;62188;35.640;139.748;2023-04-24T04:50:56;25;23;
64114;PMS5003;62188;35.640;139.748;2023-04-24T04:55:47;22;21;
64114;PMS5003;62188;35.640;139.748;2023-04-24T04:58:08;20;20;
64114;PMS5003;62188;35.640;139.748;2023-04-24T05:00:32;27;22;
64114;PMS5003;62188;35.640;139.748;2023-04-24T05:02:58;23;21;
64114;PMS5003;62188;35.640;139.748;2023-04-24T05:05:23;21;20;
64114;PMS5003;62188;35.640;139.748;2023-04-24T05:07:48;21;19;
64114;PMS5003;62188;35.640;139.748;2023-04-24T05:10:14;21;21;
64114;PMS5003;62188;35.640;139.748;2023-04-24T05:12:39;26;23;
64114;PMS5003;62188;35.640;139.748;2023-04-24T05:15:05;24;23;
64114;PMS5003;62188;35.640;139.748;2023-04-24T05:17:30;22;22;
64114;PMS5003;62188;35.640;139.748;2023-04-24T05:19:56;23;23;
64114;PMS5003;62188;35.640;139.748;2023-04-24T05:22:21;27;23;
64114;PMS5003;62188;35.640;139.748;2023-04-24T05:24:46;24;23;
64114;PMS5003;62188;35.640;139.748;2023-04-24T05:27:11;21;20;
64114;PMS5003;62188;35.640;139.748;2023-04-24T05:29:37;23;22;
64114;PMS5003;62188;35.640;139.748;2023-04-24T05:32:02;19;18;
64114;PMS5003;62188;35.640;139.748;2023-04-24T05:34:28;22;21;
64114;PMS5003;62188;35.640;139.748;2023-04-24T05:36:53;24;22;
64114;PMS5003;62188;35.640;139.748;2023-04-24T05:39:18;20;20;
64114;PMS5003;62188;35.640;139.748;2023-04-24T05:41:44;21;21;
64114;PMS5003;62188;35.640;139.748;2023-04-24T05:44:10;18;18;
64114;PMS5003;62188;35.640;139.748;2023-04-24T05:46:35;21;20;
64114;PMS5003;62188;35.640;139.748;2023-04-24T05:49:00;21;21;
64114;PMS5003;62188;35.640;139.748;2023-04-24T05:51:26;20;20;
64114;PMS5003;62188;35.640;139.748;2023-04-24T05:53:52;25;23;
64114;PMS5003;62188;35.640;139.748;2023-04-24T05:56:17;19;19;
64114;PMS5003;62188;35.640;139.748;2023-04-24T05:58:43;22;22;
64114;PMS5003;62188;35.640;139.748;2023-04-24T06:01:08;20;19;
64114;PMS5003;62188;35.640;139.748;2023-04-24T06:03:34;22;21;
64114;PMS5003;62188;35.640;139.748;2023-04-24T06:05:59;22;21;
64114;PMS5003;62188;35.640;139.748;2023-04-24T06:08:25;18;18;
64114;PMS5003;62188;35.640;139.748;2023-04-24T06:10:51;23;21;
64114;PMS5003;62188;35.640;139.748;2023-04-24T06:13:16;19;19;
64114;PMS5003;62188;35.640;139.748;2023-04-24T06:15:41;22;21;
64114;PMS5003;62188;35.640;139.748;2023-04-24T06:18:07;20;19;
64114;PMS5003;62188;35.640;139.748;2023-04-24T06:20:32;24;23;
64114;PMS5003;62188;35.640;139.748;2023-04-24T06:22:57;22;22;
64114;PMS5003;62188;35.640;139.748;2023-04-24T06:25:24;21;20;
64114;PMS5003;62188;35.640;139.748;2023-04-24T06:27:48;23;20;
64114;PMS5003;62188;35.640;139.748;2023-04-24T06:30:14;22;20;
64114;PMS5003;62188;35.640;139.748;2023-04-24T06:32:39;21;20;
64114;PMS5003;62188;35.640;139.748;2023-04-24T06:35:05;17;16;
64114;PMS5003;62188;35.640;139.748;2023-04-24T06:37:30;23;22;
64114;PMS5003;62188;35.640;139.748;2023-04-24T06:39:56;19;18;
64114;PMS5003;62188;35.640;139.748;2023-04-24T06:42:21;22;22;
64114;PMS5003;62188;35.640;139.748;2023-04-24T06:44:48;17;17;
64114;PMS5003;62188;35.640;139.748;2023-04-24T06:47:13;21;20;
64114;PMS5003;62188;35.640;139.748;2023-04-24T06:49:39;23;20;
64114;PMS5003;62188;35.640;139.748;2023-04-24T06:52:04;18;18;
64114;PMS5003;62188;35.640;139.748;2023-04-24T06:54:30;18;17;
64114;PMS5003;62188;35.640;139.748;2023-04-24T06:56:55;18;18;
64114;PMS5003;62188;35.640;139.748;2023-04-24T06:59:21;22;21;
64114;PMS5003;62188;35.640;139.748;2023-04-24T07:01:47;19;17;
64114;PMS5003;62188;35.640;139.748;2023-04-24T07:04:12;19;18;
64114;PMS5003;62188;35.640;139.748;2023-04-24T07:06:38;19;17;
64114;PMS5003;62188;35.640;139.748;2023-04-24T07:09:03;18;16;
64114;PMS5003;62188;35.640;139.748;2023-04-24T07:11:29;19;19;
64114;PMS5003;62188;35.640;139.748;2023-04-24T07:13:55;20;19;
64114;PMS5003;62188;35.640;139.748;2023-04-24T07:16:20;18;16;
64114;PMS5003;62188;35.640;139.748;2023-04-24T07:18:46;17;17;
64114;PMS5003;62188;35.640;139.748;2023-04-24T07:21:11;18;18;
64114;PMS5003;62188;35.640;139.748;2023-04-24T07:23:37;16;16;
64114;PMS5003;62188;35.640;139.748;2023-04-24T07:26:02;18;18;
64114;PMS5003;62188;35.640;139.748;2023-04-24T07:28:28;18;17;
64114;PMS5003;62188;35.640;139.748;2023-04-24T07:30:53;17;15;
64114;PMS5003;62188;35.640;139.748;2023-04-24T07:33:19;18;17;
64114;PMS5003;62188;35.640;139.748;2023-04-24T07:35:44;20;18;
64114;PMS5003;62188;35.640;139.748;2023-04-24T07:38:10;19;19;
64114;PMS5003;62188;35.640;139.748;2023-04-24T07:40:36;18;17;
64114;PMS5003;62188;35.640;139.748;2023-04-24T07:43:01;17;16;
64114;PMS5003;62188;35.640;139.748;2023-04-24T07:45:27;19;18;
64114;PMS5003;62188;35.640;139.748;2023-04-24T07:47:52;21;15;
64114;PMS5003;62188;35.640;139.748;2023-04-24T07:50:18;22;18;
64114;PMS5003;62188;35.640;139.748;2023-04-24T07:52:43;15;15;
64114;PMS5003;62188;35.640;139.748;2023-04-24T07:55:09;12;11;
64114;PMS5003;62188;35.640;139.748;2023-04-24T07:57:35;15;15;
64114;PMS5003;62188;35.640;139.748;2023-04-24T08:00:00;19;17;
64114;PMS5003;62188;35.640;139.748;2023-04-24T08:02:25;15;14;
64114;PMS5003;62188;35.640;139.748;2023-04-24T08:04:51;16;14;
64114;PMS5003;62188;35.640;139.748;2023-04-24T08:07:17;15;14;
64114;PMS5003;62188;35.640;139.748;2023-04-24T08:09:42;13;13;
64114;PMS5003;62188;35.640;139.748;2023-04-24T08:12:08;14;14;
64114;PMS5003;62188;35.640;139.748;2023-04-24T08:14:33;16;15;
64114;PMS5003;62188;35.640;139.748;2023-04-24T08:16:58;16;14;
64114;PMS5003;62188;35.640;139.748;2023-04-24T08:19:23;17;15;
64114;PMS5003;62188;35.640;139.748;2023-04-24T08:21:49;16;15;
64114;PMS5003;62188;35.640;139.748;2023-04-24T08:24:15;14;14;
64114;PMS5003;62188;35.640;139.748;2023-04-24T08:26:40;16;14;
64114;PMS5003;62188;35.640;139.748;2023-04-24T08:29:06;15;14;
64114;PMS5003;62188;35.640;139.748;2023-04-24T08:31:31;15;15;
64114;PMS5003;62188;35.640;139.748;2023-04-24T08:33:57;12;12;
64114;PMS5003;62188;35.640;139.748;2023-04-24T08:36:22;16;15;
64114;PMS5003;62188;35.640;139.748;2023-04-24T08:38:48;17;16;
64114;PMS5003;62188;35.640;139.748;2023-04-24T08:41:14;16;15;
64114;PMS5003;62188;35.640;139.748;2023-04-24T08:43:39;11;10;
64114;PMS5003;62188;35.640;139.748;2023-04-24T08:46:04;12;12;
64114;PMS5003;62188;35.640;139.748;2023-04-24T08:48:30;14;13;
64114;PMS5003;62188;35.640;139.748;2023-04-24T08:50:56;14;14;
64114;PMS5003;62188;35.640;139.748;2023-04-24T08:53:22;14;14;
64114;PMS5003;62188;35.640;139.748;2023-04-24T08:55:47;16;16;
64114;PMS5003;62188;35.640;139.748;2023-04-24T08:58:13;17;15;
64114;PMS5003;62188;35.640;139.748;2023-04-24T09:00:38;15;14;
64114;PMS5003;62188;35.640;139.748;2023-04-24T09:03:04;18;16;
64114;PMS5003;62188;35.640;139.748;2023-04-24T09:05:29;16;16;
64114;PMS5003;62188;35.640;139.748;2023-04-24T09:07:55;17;15;
64114;PMS5003;62188;35.640;139.748;2023-04-24T09:10:21;17;15;
64114;PMS5003;62188;35.640;139.748;2023-04-24T09:12:46;16;14;
64114;PMS5003;62188;35.640;139.748;2023-04-24T09:15:12;17;17;
64114;PMS5003;62188;35.640;139.748;2023-04-24T09:17:38;15;15;
64114;PMS5003;62188;35.640;139.748;2023-04-24T09:20:03;15;15;
64114;PMS5003;62188;35.640;139.748;2023-04-24T09:22:30;16;15;
64114;PMS5003;62188;35.640;139.748;2023-04-24T09:27:22;19;18;
64114;PMS5003;62188;35.640;139.748;2023-04-24T09:34:36;18;18;
64114;PMS5003;62188;35.640;139.748;2023-04-24T09:37:02;17;14;
64114;PMS5003;62188;35.640;139.748;2023-04-24T09:39:27;15;15;
64114;PMS5003;62188;35.640;139.748;2023-04-24T09:41:53;16;15;
64114;PMS5003;62188;35.640;139.748;2023-04-24T09:44:20;17;17;
64114;PMS5003;62188;35.640;139.748;2023-04-24T09:46:45;16;14;
64114;PMS5003;62188;35.640;139.748;2023-04-24T09:49:12;16;15;
64114;PMS5003;62188;35.640;139.748;2023-04-24T09:51:36;14;14;
64114;PMS5003;62188;35.640;139.748;2023-04-24T09:54:01;18;16;
64114;PMS5003;62188;35.640;139.748;2023-04-24T09:56:27;19;18;
64114;PMS5003;62188;35.640;139.748;2023-04-24T09:58:52;17;16;
64114;PMS5003;62188;35.640;139.748;2023-04-24T10:03:44;16;16;
64114;PMS5003;62188;35.640;139.748;2023-04-24T10:06:11;16;14;
64114;PMS5003;62188;35.640;139.748;2023-04-24T10:08:35;18;17;
64114;PMS5003;62188;35.640;139.748;2023-04-24T10:11:01;15;14;
64114;PMS5003;62188;35.640;139.748;2023-04-24T10:13:26;15;13;
64114;PMS5003;62188;35.640;139.748;2023-04-24T10:15:52;18;17;
64114;PMS5003;62188;35.640;139.748;2023-04-24T10:18:17;14;14;
64114;PMS5003;62188;35.640;139.748;2023-04-24T10:20:43;16;15;
64114;PMS5003;62188;35.640;139.748;2023-04-24T10:23:09;16;15;
64114;PMS5003;62188;35.640;139.748;2023-04-24T10:25:34;14;14;
64114;PMS5003;62188;35.640;139.748;2023-04-24T10:28:00;16;16;
64114;PMS5003;62188;35.640;139.748;2023-04-24T10:30:26;17;17;
64114;PMS5003;62188;35.640;139.748;2023-04-24T10:32:51;20;15;
64114;PMS5003;62188;35.640;139.748;2023-04-24T10:35:17;16;15;
64114;PMS5003;62188;35.640;139.748;2023-04-24T10:37:44;18;17;
64114;PMS5003;62188;35.640;139.748;2023-04-24T10:40:09;16;15;
64114;PMS5003;62188;35.640;139.748;2023-04-24T10:42:33;18;16;
64114;PMS5003;62188;35.640;139.748;2023-04-24T10:44:59;16;15;
64114;PMS5003;62188;35.640;139.748;2023-04-24T10:47:25;16;15;
64114;PMS5003;62188;35.640;139.748;2023-04-24T10:49:50;16;14;
64114;PMS5003;62188;35.640;139.748;2023-04-24T10:52:16;14;13;
64114;PMS5003;62188;35.640;139.748;2023-04-24T10:54:42;17;16;
64114;PMS5003;62188;35.640;139.748;2023-04-24T10:59:35;15;15;
64114;PMS5003;62188;35.640;139.748;2023-04-24T11:01:57;16;16;
64114;PMS5003;62188;35.640;139.748;2023-04-24T11:04:29;16;14;
64114;PMS5003;62188;35.640;139.748;2023-04-24T11:06:48;13;13;
64114;PMS5003;62188;35.640;139.748;2023-04-24T11:09:14;13;13;
64114;PMS5003;62188;35.640;139.748;2023-04-24T11:11:44;15;14;
64114;PMS5003;62188;35.640;139.748;2023-04-24T11:14:06;13;13;
64114;PMS5003;62188;35.640;139.748;2023-04-24T11:16:31;15;13;
64114;PMS5003;62188;35.640;139.748;2023-04-24T11:19:00;14;14;
64114;PMS5003;62188;35.640;139.748;2023-04-24T11:21:22;16;16;
64114;PMS5003;62188;35.640;139.748;2023-04-24T11:23:47;15;15;
64114;PMS5003;62188;35.640;139.748;2023-04-24T11:26:17;17;15;
64114;PMS5003;62188;35.640;139.748;2023-04-24T11:33:29;14;14;
64114;PMS5003;62188;35.640;139.748;2023-04-24T11:35:55;16;14;
64114;PMS5003;62188;35.640;139.748;2023-04-24T11:38:21;16;15;
64114;PMS5003;62188;35.640;139.748;2023-04-24T11:40:46;15;15;
64114;PMS5003;62188;35.640;139.748;2023-04-24T11:43:12;15;15;
64114;PMS5003;62188;35.640;139.748;2023-04-24T11:45:38;14;14;
64114;PMS5003;62188;35.640;139.748;2023-04-24T11:48:03;15;14;
64114;PMS5003;62188;35.640;139.748;2023-04-24T11:50:29;20;19;
64114;PMS5003;62188;35.640;139.748;2023-04-24T11:52:54;18;17;
64114;PMS5003;62188;35.640;139.748;2023-04-24T11:55:24;15;15;
64114;PMS5003;62188;35.640;139.748;2023-04-24T11:57:46;14;14;
64114;PMS5003;62188;35.640;139.748;2023-04-24T12:00:15;18;18;
64114;PMS5003;62188;35.640;139.748;2023-04-24T12:02:36;17;16;
64114;PMS5003;62188;35.640;139.748;2023-04-24T12:05:02;18;17;
64114;PMS5003;62188;35.640;139.748;2023-04-24T12:07:27;17;15;
64114;PMS5003;62188;35.640;139.748;2023-04-24T12:09:57;16;15;
64114;PMS5003;62188;35.640;139.748;2023-04-24T12:12:19;14;14;
64114;PMS5003;62188;35.640;139.748;2023-04-24T12:14:47;16;16;
64114;PMS5003;62188;35.640;139.748;2023-04-24T12:17:10;13;13;
64114;PMS5003;62188;35.640;139.748;2023-04-24T12:19:36;16;15;
64114;PMS5003;62188;35.640;139.748;2023-04-24T12:22:02;17;17;
64114;PMS5003;62188;35.640;139.748;2023-04-24T12:24:27;17;15;
64114;PMS5003;62188;35.640;139.748;2023-04-24T12:26:52;16;16;
64114;PMS5003;62188;35.640;139.748;2023-04-24T12:29:20;16;15;
64114;PMS5003;62188;35.640;139.748;2023-04-24T12:31:44;15;14;
64114;PMS5003;62188;35.640;139.748;2023-04-24T12:36:35;13;12;
64114;PMS5003;62188;35.640;139.748;2023-04-24T12:39:00;17;17;
64114;PMS5003;62188;35.640;139.748;2023-04-24T12:41:26;16;15;
64114;PMS5003;62188;35.640;139.748;2023-04-24T12:43:52;14;14;
64114;PMS5003;62188;35.640;139.748;2023-04-24T12:46:17;16;15;
64114;PMS5003;62188;35.640;139.748;2023-04-24T12:48:42;16;14;
64114;PMS5003;62188;35.640;139.748;2023-04-24T12:51:08;15;15;
64114;PMS5003;62188;35.640;139.748;2023-04-24T12:53:34;16;16;
64114;PMS5003;62188;35.640;139.748;2023-04-24T12:55:59;18;16;
64114;PMS5003;62188;35.640;139.748;2023-04-24T12:58:25;16;15;
64114;PMS5003;62188;35.640;139.748;2023-04-24T13:00:50;16;16;
64114;PMS5003;62188;35.640;139.748;2023-04-24T13:03:16;14;14;
64114;PMS5003;62188;35.640;139.748;2023-04-24T13:05:41;14;14;
64114;PMS5003;62188;35.640;139.748;2023-04-24T13:08:07;15;15;
64114;PMS5003;62188;35.640;139.748;2023-04-24T13:10:32;16;15;
64114;PMS5003;62188;35.640;139.748;2023-04-24T13:12:59;15;14;
64114;PMS5003;62188;35.640;139.748;2023-04-24T13:15:24;18;16;
64114;PMS5003;62188;35.640;139.748;2023-04-24T13:17:49;16;16;
64114;PMS5003;62188;35.640;139.748;2023-04-24T13:20:15;15;15;
64114;PMS5003;62188;35.640;139.748;2023-04-24T13:22:41;18;16;
64114;PMS5003;62188;35.640;139.748;2023-04-24T13:25:06;15;15;
64114;PMS5003;62188;35.640;139.748;2023-04-24T13:27:32;14;14;
64114;PMS5003;62188;35.640;139.748;2023-04-24T13:29:57;13;13;
64114;PMS5003;62188;35.640;139.748;2023-04-24T13:32:23;16;16;
64114;PMS5003;62188;35.640;139.748;2023-04-24T13:34:48;18;17;
64114;PMS5003;62188;35.640;139.748;2023-04-24T13:37:14;14;13;
64114;PMS5003;62188;35.640;139.748;2023-04-24T13:39:40;15;15;
64114;PMS5003;62188;35.640;139.748;2023-04-24T13:42:05;14;14;
64114;PMS5003;62188;35.640;139.748;2023-04-24T13:44:30;16;16;
64114;PMS5003;62188;35.640;139.748;2023-04-24T13:46:57;17;15;
64114;PMS5003;62188;35.640;139.748;2023-04-24T13:49:22;19;18;
64114;PMS5003;62188;35.640;139.748;2023-04-24T13:51:47;16;16;
64114;PMS5003;62188;35.640;139.748;2023-04-24T13:54:12;19;18;
64114;PMS5003;62188;35.640;139.748;2023-04-24T13:56:38;16;15;
64114;PMS5003;62188;35.640;139.748;2023-04-24T13:59:03;14;14;
64114;PMS5003;62188;35.640;139.748;2023-04-24T14:01:29;19;18;
64114;PMS5003;62188;35.640;139.748;2023-04-24T14:03:55;13;13;
64114;PMS5003;62188;35.640;139.748;2023-04-24T14:06:20;17;16;
64114;PMS5003;62188;35.640;139.748;2023-04-24T14:08:46;15;14;
64114;PMS5003;62188;35.640;139.748;2023-04-24T14:11:11;16;16;
64114;PMS5003;62188;35.640;139.748;2023-04-24T14:13:37;14;13;
64114;PMS5003;62188;35.640;139.748;2023-04-24T14:16:02;17;16;
64114;PMS5003;62188;35.640;139.748;2023-04-24T14:18:28;16;15;
64114;PMS5003;62188;35.640;139.748;2023-04-24T14:20:54;18;15;
64114;PMS5003;62188;35.640;139.748;2023-04-24T14:23:19;13;13;
64114;PMS5003;62188;35.640;139.748;2023-04-24T14:25:45;15;13;
64114;PMS5003;62188;35.640;139.748;2023-04-24T14:28:11;14;14;
64114;PMS5003;62188;35.640;139.748;2023-04-24T14:30:36;15;14;
64114;PMS5003;62188;35.640;139.748;2023-04-24T14:33:02;14;12;
64114;PMS5003;62188;35.640;139.748;2023-04-24T14:35:27;16;16;
64114;PMS5003;62188;35.640;139.748;2023-04-24T14:37:54;13;12;
64114;PMS5003;62188;35.640;139.748;2023-04-24T14:40:19;14;13;
64114;PMS5003;62188;35.640;139.748;2023-04-24T14:42:44;12;12;
64114;PMS5003;62188;35.640;139.748;2023-04-24T14:45:10;15;15;
64114;PMS5003;62188;35.640;139.748;2023-04-24T14:47:36;15;14;
64114;PMS5003;62188;35.640;139.748;2023-04-24T14:50:01;12;11;
64114;PMS5003;62188;35.640;139.748;2023-04-24T14:52:26;16;15;
64114;PMS5003;62188;35.640;139.748;2023-04-24T14:54:52;14;13;
64114;PMS5003;62188;35.640;139.748;2023-04-24T14:57:18;13;13;
64114;PMS5003;62188;35.640;139.748;2023-04-24T14:59:43;13;12;
64114;PMS5003;62188;35.640;139.748;2023-04-24T15:02:09;15;15;
64114;PMS5003;62188;35.640;139.748;2023-04-24T15:04:35;15;12;
64114;PMS5003;62188;35.640;139.748;2023-04-24T15:07:00;13;12;
64114;PMS5003;62188;35.640;139.748;2023-04-24T15:09:26;13;13;
64114;PMS5003;62188;35.640;139.748;2023-04-24T15:11:52;15;13;
64114;PMS5003;62188;35.640;139.748;2023-04-24T15:14:17;15;14;
64114;PMS5003;62188;35.640;139.748;2023-04-24T15:16:42;13;13;
64114;PMS5003;62188;35.640;139.748;2023-04-24T15:19:08;17;17;
64114;PMS5003;62188;35.640;139.748;2023-04-24T15:21:35;13;13;
64114;PMS5003;62188;35.640;139.748;2023-04-24T15:23:59;15;15;
64114;PMS5003;62188;35.640;139.748;2023-04-24T15:26:25;18;16;
64114;PMS5003;62188;35.640;139.748;2023-04-24T15:28:50;17;17;
64114;PMS5003;62188;35.640;139.748;2023-04-24T15:31:16;15;14;
64114;PMS5003;62188;35.640;139.748;2023-04-24T15:33:41;16;14;
64114;PMS5003;62188;35.640;139.748;2023-04-24T15:36:07;17;16;
64114;PMS5003;62188;35.640;139.748;2023-04-24T15:38:33;14;14;
64114;PMS5003;62188;35.640;139.748;2023-04-24T15:40:58;15;15;
64114;PMS5003;62188;35.640;139.748;2023-04-24T15:43:24;14;14;
64114;PMS5003;62188;35.640;139.748;2023-04-24T15:45:49;15;14;
64114;PMS5003;62188;35.640;139.748;2023-04-24T15:48:15;14;13;
64114;PMS5003;62188;35.640;139.748;2023-04-24T15:50:40;17;16;
64114;PMS5003;62188;35.640;139.748;2023-04-24T15:53:06;15;13;
64114;PMS5003;62188;35.640;139.748;2023-04-24T15:55:31;13;13;
64114;PMS5003;62188;35.640;139.748;2023-04-24T15:57:56;14;14;
64114;PMS5003;62188;35.640;139.748;2023-04-24T16:00:22;16;15;
64114;PMS5003;62188;35.640;139.748;2023-04-24T16:02:48;14;14;
64114;PMS5003;62188;35.640;139.748;2023-04-24T16:05:13;15;14;
64114;PMS5003;62188;35.640;139.748;2023-04-24T16:07:39;18;17;
64114;PMS5003;62188;35.640;139.748;2023-04-24T16:10:05;16;15;